sensor_id;sensor_type;location;lat;lon;timestamp;P1;durP1;ratioP1;P2;durP2;ratioP2
18140;SDS011;9196;49.194;12.526;2024-03-29T00:01:09;2.63;;;1.40;;
18140;SDS011;9196;49.194;12.526;2024-03-29T00:03:35;3.10;;;1.37;;
18140;SDS011;9196;49.194;12.526;2024-03-29T00:06:00;1.27;;;1.27;;
18140;SDS011;9196;49.194;12.526;2024-03-29T00:08:28;3.40;;;1.00;;
18140;SDS011;9196;49.194;12.526;2024-03-29T00:10:53;2.35;;;1.48;;
18140;SDS011;9196;49.194;12.526;2024-03-29T00:13:19;1.80;;;1.20;;
18140;SDS011;9196;49.194;12.526;2024-03-29T00:15:45;1.50;;;1.40;;
18140;SDS011;9196;49.194;12.526;2024-03-29T00:18:11;2.20;;;2.00;;
18140;SDS011;9196;49.194;12.526;2024-03-29T00:20:37;1.20;;;1.20;;
18140;SDS011;9196;49.194;12.526;2024-03-29T00:23:03;1.30;;;1.20;;
18140;SDS011;9196;49.194;12.526;2024-03-29T00:25:30;1.30;;;1.20;;
18140;SDS011;9196;49.194;12.526;2024-03-29T00:27:56;1.02;;;1.00;;
18140;SDS011;9196;49.194;12.526;2024-03-29T00:30:22;2.57;;;1.30;;
18140;SDS011;9196;49.194;12.526;2024-03-29T00:32:48;1.70;;;1.60;;
18140;SDS011;9196;49.194;12.526;2024-03-29T00:35:14;5.03;;;1.80;;
18140;SDS011;9196;49.194;12.526;2024-03-29T00:37:40;2.87;;;1.63;;
18140;SDS011;9196;49.194;12.526;2024-03-29T00:40:06;1.70;;;1.60;;
18140;SDS011;9196;49.194;12.526;2024-03-29T00:42:34;1.55;;;1.45;;
18140;SDS011;9196;49.194;12.526;2024-03-29T00:44:59;1.58;;;1.48;;
18140;SDS011;9196;49.194;12.526;2024-03-29T00:47:25;4.70;;;1.60;;
18140;SDS011;9196;49.194;12.526;2024-03-29T00:49:51;1.67;;;1.40;;
18140;SDS011;9196;49.194;12.526;2024-03-29T00:52:17;1.75;;;1.65;;
18140;SDS011;9196;49.194;12.526;2024-03-29T00:54:43;2.07;;;1.87;;
18140;SDS011;9196;49.194;12.526;2024-03-29T00:57:09;1.73;;;1.60;;
18140;SDS011;9196;49.194;12.526;2024-03-29T00:59:37;2.35;;;1.42;;
18140;SDS011;9196;49.194;12.526;2024-03-29T01:02:03;1.90;;;1.80;;
18140;SDS011;9196;49.194;12.526;2024-03-29T01:04:29;1.83;;;1.58;;
18140;SDS011;9196;49.194;12.526;2024-03-29T01:06:54;3.10;;;1.43;;
18140;SDS011;9196;49.194;12.526;2024-03-29T01:09:20;1.53;;;1.37;;
18140;SDS011;9196;49.194;12.526;2024-03-29T01:11:46;2.00;;;1.87;;
18140;SDS011;9196;49.194;12.526;2024-03-29T01:14:12;1.50;;;1.50;;
18140;SDS011;9196;49.194;12.526;2024-03-29T01:16:39;1.20;;;1.20;;
18140;SDS011;9196;49.194;12.526;2024-03-29T01:19:05;1.95;;;1.70;;
18140;SDS011;9196;49.194;12.526;2024-03-29T01:21:31;1.30;;;1.20;;
18140;SDS011;9196;49.194;12.526;2024-03-29T01:23:57;3.53;;;1.93;;
18140;SDS011;9196;49.194;12.526;2024-03-29T01:26:23;1.60;;;1.50;;
18140;SDS011;9196;49.194;12.526;2024-03-29T01:28:49;1.00;;;1.00;;
18140;SDS011;9196;49.194;12.526;2024-03-29T01:31:15;2.40;;;1.20;;
18140;SDS011;9196;49.194;12.526;2024-03-29T01:33:42;2.20;;;1.20;;
18140;SDS011;9196;49.194;12.526;2024-03-29T01:36:08;1.65;;;1.55;;
18140;SDS011;9196;49.194;12.526;2024-03-29T01:38:34;1.43;;;1.30;;
18140;SDS011;9196;49.194;12.526;2024-03-29T01:41:00;1.42;;;1.35;;
18140;SDS011;9196;49.194;12.526;2024-03-29T01:43:26;1.95;;;1.65;;
18140;SDS011;9196;49.194;12.526;2024-03-29T01:45:54;0.85;;;0.85;;
18140;SDS011;9196;49.194;12.526;2024-03-29T01:48:21;1.88;;;1.77;;
18140;SDS011;9196;49.194;12.526;2024-03-29T01:50:51;1.55;;;1.45;;
18140;SDS011;9196;49.194;12.526;2024-03-29T01:53:19;1.90;;;1.80;;
18140;SDS011;9196;49.194;12.526;2024-03-29T01:55:47;1.20;;;1.20;;
18140;SDS011;9196;49.194;12.526;2024-03-29T01:58:13;0.98;;;0.98;;
18140;SDS011;9196;49.194;12.526;2024-03-29T02:00:42;1.20;;;1.20;;
18140;SDS011;9196;49.194;12.526;2024-03-29T02:03:16;1.58;;;1.48;;
18140;SDS011;9196;49.194;12.526;2024-03-29T02:05:43;1.00;;;1.00;;
18140;SDS011;9196;49.194;12.526;2024-03-29T02:08:11;1.80;;;1.05;;
18140;SDS011;9196;49.194;12.526;2024-03-29T02:10:39;1.40;;;1.30;;
18140;SDS011;9196;49.194;12.526;2024-03-29T02:13:06;1.25;;;1.15;;
18140;SDS011;9196;49.194;12.526;2024-03-29T02:15:32;1.60;;;1.50;;
18140;SDS011;9196;49.194;12.526;2024-03-29T02:17:59;0.95;;;0.95;;
18140;SDS011;9196;49.194;12.526;2024-03-29T02:20:25;1.07;;;1.07;;
18140;SDS011;9196;49.194;12.526;2024-03-29T02:22:53;1.25;;;1.25;;
18140;SDS011;9196;49.194;12.526;2024-03-29T02:25:22;1.15;;;0.95;;
18140;SDS011;9196;49.194;12.526;2024-03-29T02:27:49;0.85;;;0.85;;
18140;SDS011;9196;49.194;12.526;2024-03-29T02:30:17;2.80;;;1.02;;
18140;SDS011;9196;49.194;12.526;2024-03-29T02:32:45;0.90;;;0.90;;
18140;SDS011;9196;49.194;12.526;2024-03-29T02:35:13;0.90;;;0.90;;
18140;SDS011;9196;49.194;12.526;2024-03-29T02:37:39;1.40;;;1.35;;
18140;SDS011;9196;49.194;12.526;2024-03-29T02:40:07;1.10;;;1.10;;
18140;SDS011;9196;49.194;12.526;2024-03-29T02:42:36;1.00;;;1.00;;
18140;SDS011;9196;49.194;12.526;2024-03-29T02:45:03;1.33;;;1.00;;
18140;SDS011;9196;49.194;12.526;2024-03-29T02:47:30;1.20;;;1.10;;
18140;SDS011;9196;49.194;12.526;2024-03-29T02:49:57;1.60;;;1.55;;
18140;SDS011;9196;49.194;12.526;2024-03-29T02:52:23;4.73;;;1.40;;
18140;SDS011;9196;49.194;12.526;2024-03-29T02:54:50;4.72;;;1.10;;
18140;SDS011;9196;49.194;12.526;2024-03-29T02:57:15;0.93;;;0.93;;
18140;SDS011;9196;49.194;12.526;2024-03-29T02:59:43;1.00;;;1.00;;
18140;SDS011;9196;49.194;12.526;2024-03-29T03:02:09;1.60;;;1.00;;
18140;SDS011;9196;49.194;12.526;2024-03-29T03:04:36;0.90;;;0.90;;
18140;SDS011;9196;49.194;12.526;2024-03-29T03:07:02;0.93;;;0.90;;
18140;SDS011;9196;49.194;12.526;2024-03-29T03:09:42;0.80;;;0.80;;
18140;SDS011;9196;49.194;12.526;2024-03-29T03:12:28;0.70;;;0.70;;
18140;SDS011;9196;49.194;12.526;2024-03-29T03:14:56;0.80;;;0.80;;
18140;SDS011;9196;49.194;12.526;2024-03-29T03:17:23;1.30;;;1.23;;
18140;SDS011;9196;49.194;12.526;2024-03-29T03:19:50;0.82;;;0.82;;
18140;SDS011;9196;49.194;12.526;2024-03-29T03:22:16;0.90;;;0.90;;
18140;SDS011;9196;49.194;12.526;2024-03-29T03:24:43;1.35;;;1.10;;
18140;SDS011;9196;49.194;12.526;2024-03-29T03:27:09;1.20;;;1.20;;
18140;SDS011;9196;49.194;12.526;2024-03-29T03:29:36;5.25;;;1.50;;
18140;SDS011;9196;49.194;12.526;2024-03-29T03:32:03;1.30;;;1.30;;
18140;SDS011;9196;49.194;12.526;2024-03-29T03:34:31;1.02;;;1.02;;
18140;SDS011;9196;49.194;12.526;2024-03-29T03:36:57;1.20;;;1.20;;
18140;SDS011;9196;49.194;12.526;2024-03-29T03:39:24;1.17;;;1.10;;
18140;SDS011;9196;49.194;12.526;2024-03-29T03:41:50;0.80;;;0.80;;
18140;SDS011;9196;49.194;12.526;2024-03-29T03:44:15;1.07;;;1.07;;
18140;SDS011;9196;49.194;12.526;2024-03-29T03:46:42;3.17;;;1.15;;
18140;SDS011;9196;49.194;12.526;2024-03-29T03:49:10;1.05;;;1.05;;
18140;SDS011;9196;49.194;12.526;2024-03-29T03:51:36;0.88;;;0.88;;
18140;SDS011;9196;49.194;12.526;2024-03-29T03:54:03;0.70;;;0.70;;
18140;SDS011;9196;49.194;12.526;2024-03-29T03:56:29;0.90;;;0.90;;
18140;SDS011;9196;49.194;12.526;2024-03-29T03:58:56;0.70;;;0.70;;
18140;SDS011;9196;49.194;12.526;2024-03-29T04:01:23;0.70;;;0.70;;
18140;SDS011;9196;49.194;12.526;2024-03-29T04:03:49;0.80;;;0.80;;
18140;SDS011;9196;49.194;12.526;2024-03-29T04:06:16;0.80;;;0.80;;
18140;SDS011;9196;49.194;12.526;2024-03-29T04:08:43;0.98;;;0.80;;
18140;SDS011;9196;49.194;12.526;2024-03-29T04:11:09;1.08;;;1.00;;
18140;SDS011;9196;49.194;12.526;2024-03-29T04:13:36;2.20;;;0.80;;
18140;SDS011;9196;49.194;12.526;2024-03-29T04:16:05;0.80;;;0.80;;
18140;SDS011;9196;49.194;12.526;2024-03-29T04:18:33;1.20;;;1.20;;
18140;SDS011;9196;49.194;12.526;2024-03-29T04:20:59;2.25;;;1.00;;
18140;SDS011;9196;49.194;12.526;2024-03-29T04:23:28;0.70;;;0.70;;
18140;SDS011;9196;49.194;12.526;2024-03-29T04:25:55;0.70;;;0.70;;
18140;SDS011;9196;49.194;12.526;2024-03-29T04:28:23;0.70;;;0.70;;
18140;SDS011;9196;49.194;12.526;2024-03-29T04:30:52;1.58;;;0.80;;
18140;SDS011;9196;49.194;12.526;2024-03-29T04:33:19;0.77;;;0.77;;
18140;SDS011;9196;49.194;12.526;2024-03-29T04:35:55;0.70;;;0.70;;
18140;SDS011;9196;49.194;12.526;2024-03-29T04:38:23;0.70;;;0.70;;
18140;SDS011;9196;49.194;12.526;2024-03-29T04:40:52;0.70;;;0.70;;
18140;SDS011;9196;49.194;12.526;2024-03-29T04:43:20;0.80;;;0.80;;
18140;SDS011;9196;49.194;12.526;2024-03-29T04:45:48;0.70;;;0.70;;
18140;SDS011;9196;49.194;12.526;2024-03-29T04:48:15;2.17;;;1.25;;
18140;SDS011;9196;49.194;12.526;2024-03-29T04:50:42;1.02;;;0.85;;
18140;SDS011;9196;49.194;12.526;2024-03-29T04:53:09;0.88;;;0.88;;
18140;SDS011;9196;49.194;12.526;2024-03-29T04:55:35;1.10;;;1.00;;
18140;SDS011;9196;49.194;12.526;2024-03-29T04:58:04;1.05;;;0.70;;
18140;SDS011;9196;49.194;12.526;2024-03-29T05:00:30;0.70;;;0.70;;
18140;SDS011;9196;49.194;12.526;2024-03-29T05:02:57;1.13;;;0.77;;
18140;SDS011;9196;49.194;12.526;2024-03-29T05:05:24;0.68;;;0.68;;
18140;SDS011;9196;49.194;12.526;2024-03-29T05:07:51;1.33;;;1.20;;
18140;SDS011;9196;49.194;12.526;2024-03-29T05:10:17;3.28;;;0.73;;
18140;SDS011;9196;49.194;12.526;2024-03-29T05:12:47;0.80;;;0.80;;
18140;SDS011;9196;49.194;12.526;2024-03-29T05:15:16;1.23;;;1.05;;
18140;SDS011;9196;49.194;12.526;2024-03-29T05:17:42;0.70;;;0.70;;
18140;SDS011;9196;49.194;12.526;2024-03-29T05:20:10;0.60;;;0.60;;
18140;SDS011;9196;49.194;12.526;2024-03-29T05:22:37;1.08;;;1.08;;
18140;SDS011;9196;49.194;12.526;2024-03-29T05:25:04;0.90;;;0.90;;
18140;SDS011;9196;49.194;12.526;2024-03-29T05:27:32;2.90;;;1.30;;
18140;SDS011;9196;49.194;12.526;2024-03-29T05:29:59;3.00;;;2.20;;
18140;SDS011;9196;49.194;12.526;2024-03-29T05:32:27;13.98;;;1.90;;
18140;SDS011;9196;49.194;12.526;2024-03-29T05:34:54;1.90;;;1.70;;
18140;SDS011;9196;49.194;12.526;2024-03-29T05:37:21;2.10;;;2.00;;
18140;SDS011;9196;49.194;12.526;2024-03-29T05:39:50;2.97;;;2.78;;
18140;SDS011;9196;49.194;12.526;2024-03-29T05:42:23;3.05;;;2.83;;
18140;SDS011;9196;49.194;12.526;2024-03-29T05:44:50;3.17;;;2.95;;
18140;SDS011;9196;49.194;12.526;2024-03-29T05:47:17;2.25;;;2.15;;
18140;SDS011;9196;49.194;12.526;2024-03-29T05:49:45;2.42;;;2.30;;
18140;SDS011;9196;49.194;12.526;2024-03-29T05:52:12;2.58;;;2.20;;
18140;SDS011;9196;49.194;12.526;2024-03-29T05:54:39;1.70;;;1.70;;
18140;SDS011;9196;49.194;12.526;2024-03-29T05:57:06;1.95;;;1.85;;
18140;SDS011;9196;49.194;12.526;2024-03-29T05:59:33;2.10;;;2.00;;
18140;SDS011;9196;49.194;12.526;2024-03-29T06:02:00;2.10;;;2.00;;
18140;SDS011;9196;49.194;12.526;2024-03-29T06:04:27;1.83;;;1.73;;
18140;SDS011;9196;49.194;12.526;2024-03-29T06:06:58;1.50;;;1.40;;
18140;SDS011;9196;49.194;12.526;2024-03-29T06:09:25;1.52;;;1.40;;
18140;SDS011;9196;49.194;12.526;2024-03-29T06:11:52;1.40;;;1.25;;
18140;SDS011;9196;49.194;12.526;2024-03-29T06:14:20;1.40;;;1.40;;
18140;SDS011;9196;49.194;12.526;2024-03-29T06:17:04;3.88;;;3.58;;
18140;SDS011;9196;49.194;12.526;2024-03-29T06:19:49;2.33;;;2.03;;
18140;SDS011;9196;49.194;12.526;2024-03-29T06:22:18;1.25;;;1.25;;
18140;SDS011;9196;49.194;12.526;2024-03-29T06:24:44;1.02;;;0.98;;
18140;SDS011;9196;49.194;12.526;2024-03-29T06:27:12;1.35;;;1.35;;
18140;SDS011;9196;49.194;12.526;2024-03-29T06:29:41;1.25;;;1.25;;
18140;SDS011;9196;49.194;12.526;2024-03-29T06:32:08;1.00;;;1.00;;
18140;SDS011;9196;49.194;12.526;2024-03-29T06:34:34;0.80;;;0.80;;
18140;SDS011;9196;49.194;12.526;2024-03-29T06:37:01;1.10;;;1.00;;
18140;SDS011;9196;49.194;12.526;2024-03-29T06:39:30;0.70;;;0.70;;
18140;SDS011;9196;49.194;12.526;2024-03-29T06:41:57;0.90;;;0.90;;
18140;SDS011;9196;49.194;12.526;2024-03-29T06:44:23;1.52;;;0.90;;
18140;SDS011;9196;49.194;12.526;2024-03-29T06:46:50;1.05;;;1.05;;
18140;SDS011;9196;49.194;12.526;2024-03-29T06:49:17;0.82;;;0.82;;
18140;SDS011;9196;49.194;12.526;2024-03-29T06:51:44;0.82;;;0.82;;
18140;SDS011;9196;49.194;12.526;2024-03-29T06:54:11;3.03;;;1.35;;
18140;SDS011;9196;49.194;12.526;2024-03-29T06:56:39;1.35;;;1.35;;
18140;SDS011;9196;49.194;12.526;2024-03-29T06:59:05;1.55;;;1.48;;
18140;SDS011;9196;49.194;12.526;2024-03-29T07:01:33;1.63;;;1.52;;
18140;SDS011;9196;49.194;12.526;2024-03-29T07:04:01;14.88;;;2.65;;
18140;SDS011;9196;49.194;12.526;2024-03-29T07:06:28;4.55;;;2.08;;
18140;SDS011;9196;49.194;12.526;2024-03-29T07:08:55;2.50;;;2.30;;
18140;SDS011;9196;49.194;12.526;2024-03-29T07:11:21;1.65;;;1.55;;
18140;SDS011;9196;49.194;12.526;2024-03-29T07:13:49;1.15;;;1.15;;
18140;SDS011;9196;49.194;12.526;2024-03-29T07:16:16;1.88;;;1.10;;
18140;SDS011;9196;49.194;12.526;2024-03-29T07:18:43;1.42;;;1.30;;
18140;SDS011;9196;49.194;12.526;2024-03-29T07:21:10;1.60;;;1.20;;
18140;SDS011;9196;49.194;12.526;2024-03-29T07:23:36;2.67;;;0.90;;
18140;SDS011;9196;49.194;12.526;2024-03-29T07:26:04;0.80;;;0.80;;
18140;SDS011;9196;49.194;12.526;2024-03-29T07:28:31;1.50;;;1.15;;
18140;SDS011;9196;49.194;12.526;2024-03-29T07:31:04;1.05;;;1.05;;
18140;SDS011;9196;49.194;12.526;2024-03-29T07:33:32;0.80;;;0.70;;
18140;SDS011;9196;49.194;12.526;2024-03-29T07:35:59;1.67;;;1.17;;
18140;SDS011;9196;49.194;12.526;2024-03-29T07:38:26;0.70;;;0.70;;
18140;SDS011;9196;49.194;12.526;2024-03-29T07:40:52;1.13;;;1.00;;
18140;SDS011;9196;49.194;12.526;2024-03-29T07:43:20;0.80;;;0.80;;
18140;SDS011;9196;49.194;12.526;2024-03-29T07:45:47;6.15;;;1.00;;
18140;SDS011;9196;49.194;12.526;2024-03-29T07:48:16;1.77;;;1.30;;
18140;SDS011;9196;49.194;12.526;2024-03-29T07:50:44;1.55;;;1.48;;
18140;SDS011;9196;49.194;12.526;2024-03-29T07:53:12;0.90;;;0.90;;
18140;SDS011;9196;49.194;12.526;2024-03-29T07:55:39;0.80;;;0.80;;
18140;SDS011;9196;49.194;12.526;2024-03-29T07:58:07;0.88;;;0.88;;
18140;SDS011;9196;49.194;12.526;2024-03-29T08:00:35;0.95;;;0.90;;
18140;SDS011;9196;49.194;12.526;2024-03-29T08:03:05;0.70;;;0.70;;
18140;SDS011;9196;49.194;12.526;2024-03-29T08:05:33;1.08;;;1.08;;
18140;SDS011;9196;49.194;12.526;2024-03-29T08:08:01;0.70;;;0.70;;
18140;SDS011;9196;49.194;12.526;2024-03-29T08:10:28;1.10;;;1.00;;
18140;SDS011;9196;49.194;12.526;2024-03-29T08:12:56;1.00;;;1.00;;
18140;SDS011;9196;49.194;12.526;2024-03-29T08:15:22;0.90;;;0.90;;
18140;SDS011;9196;49.194;12.526;2024-03-29T08:17:50;1.03;;;0.90;;
18140;SDS011;9196;49.194;12.526;2024-03-29T08:20:17;3.70;;;0.93;;
18140;SDS011;9196;49.194;12.526;2024-03-29T08:22:45;1.50;;;1.40;;
18140;SDS011;9196;49.194;12.526;2024-03-29T08:25:12;1.00;;;1.00;;
18140;SDS011;9196;49.194;12.526;2024-03-29T08:27:39;1.97;;;0.90;;
18140;SDS011;9196;49.194;12.526;2024-03-29T08:30:06;0.90;;;0.90;;
18140;SDS011;9196;49.194;12.526;2024-03-29T08:32:33;1.57;;;1.10;;
18140;SDS011;9196;49.194;12.526;2024-03-29T08:35:00;2.50;;;0.93;;
18140;SDS011;9196;49.194;12.526;2024-03-29T08:37:27;0.80;;;0.80;;
18140;SDS011;9196;49.194;12.526;2024-03-29T08:39:56;0.83;;;0.83;;
18140;SDS011;9196;49.194;12.526;2024-03-29T08:42:23;1.53;;;0.90;;
18140;SDS011;9196;49.194;12.526;2024-03-29T08:44:50;2.47;;;1.00;;
18140;SDS011;9196;49.194;12.526;2024-03-29T08:47:18;2.73;;;0.93;;
18140;SDS011;9196;49.194;12.526;2024-03-29T08:49:44;2.00;;;0.80;;
18140;SDS011;9196;49.194;12.526;2024-03-29T08:52:11;1.00;;;1.00;;
18140;SDS011;9196;49.194;12.526;2024-03-29T08:54:40;0.70;;;0.70;;
18140;SDS011;9196;49.194;12.526;2024-03-29T08:57:09;0.80;;;0.70;;
18140;SDS011;9196;49.194;12.526;2024-03-29T08:59:36;0.77;;;0.77;;
18140;SDS011;9196;49.194;12.526;2024-03-29T09:02:05;1.00;;;0.80;;
18140;SDS011;9196;49.194;12.526;2024-03-29T09:04:33;1.33;;;1.03;;
18140;SDS011;9196;49.194;12.526;2024-03-29T09:07:00;0.70;;;0.70;;
18140;SDS011;9196;49.194;12.526;2024-03-29T09:09:28;3.63;;;1.13;;
18140;SDS011;9196;49.194;12.526;2024-03-29T09:11:55;0.70;;;0.70;;
18140;SDS011;9196;49.194;12.526;2024-03-29T09:14:23;2.87;;;0.70;;
18140;SDS011;9196;49.194;12.526;2024-03-29T09:16:50;1.00;;;0.90;;
18140;SDS011;9196;49.194;12.526;2024-03-29T09:19:17;0.83;;;0.80;;
18140;SDS011;9196;49.194;12.526;2024-03-29T09:21:44;0.80;;;0.77;;
18140;SDS011;9196;49.194;12.526;2024-03-29T09:24:11;0.73;;;0.73;;
18140;SDS011;9196;49.194;12.526;2024-03-29T09:26:38;0.80;;;0.70;;
18140;SDS011;9196;49.194;12.526;2024-03-29T09:29:05;0.83;;;0.80;;
18140;SDS011;9196;49.194;12.526;2024-03-29T09:31:33;0.80;;;0.80;;
18140;SDS011;9196;49.194;12.526;2024-03-29T09:34:00;0.77;;;0.77;;
18140;SDS011;9196;49.194;12.526;2024-03-29T09:36:27;0.93;;;0.93;;
18140;SDS011;9196;49.194;12.526;2024-03-29T09:38:54;1.70;;;1.27;;
18140;SDS011;9196;49.194;12.526;2024-03-29T09:41:21;1.17;;;0.80;;
18140;SDS011;9196;49.194;12.526;2024-03-29T09:43:51;0.90;;;0.90;;
18140;SDS011;9196;49.194;12.526;2024-03-29T09:46:20;1.27;;;1.23;;
18140;SDS011;9196;49.194;12.526;2024-03-29T09:48:49;0.70;;;0.70;;
18140;SDS011;9196;49.194;12.526;2024-03-29T09:51:17;5.10;;;1.10;;
18140;SDS011;9196;49.194;12.526;2024-03-29T09:53:44;0.97;;;0.60;;
18140;SDS011;9196;49.194;12.526;2024-03-29T09:56:12;0.60;;;0.60;;
18140;SDS011;9196;49.194;12.526;2024-03-29T09:58:39;0.80;;;0.80;;
18140;SDS011;9196;49.194;12.526;2024-03-29T10:01:06;1.00;;;1.00;;
18140;SDS011;9196;49.194;12.526;2024-03-29T10:03:36;0.90;;;0.90;;
18140;SDS011;9196;49.194;12.526;2024-03-29T10:06:06;0.90;;;0.90;;
18140;SDS011;9196;49.194;12.526;2024-03-29T10:08:34;0.83;;;0.70;;
18140;SDS011;9196;49.194;12.526;2024-03-29T10:11:02;0.80;;;0.80;;
18140;SDS011;9196;49.194;12.526;2024-03-29T10:13:29;0.70;;;0.70;;
18140;SDS011;9196;49.194;12.526;2024-03-29T10:15:56;0.80;;;0.80;;
18140;SDS011;9196;49.194;12.526;2024-03-29T10:18:23;4.67;;;1.73;;
18140;SDS011;9196;49.194;12.526;2024-03-29T10:20:58;0.97;;;0.97;;
18140;SDS011;9196;49.194;12.526;2024-03-29T10:23:26;1.50;;;1.00;;
18140;SDS011;9196;49.194;12.526;2024-03-29T10:25:53;1.40;;;1.30;;
18140;SDS011;9196;49.194;12.526;2024-03-29T10:28:20;1.30;;;1.20;;
18140;SDS011;9196;49.194;12.526;2024-03-29T10:30:47;2.40;;;1.10;;
18140;SDS011;9196;49.194;12.526;2024-03-29T10:33:14;1.00;;;0.90;;
18140;SDS011;9196;49.194;12.526;2024-03-29T10:35:42;4.63;;;1.73;;
18140;SDS011;9196;49.194;12.526;2024-03-29T10:38:09;1.10;;;0.93;;
18140;SDS011;9196;49.194;12.526;2024-03-29T10:40:38;0.80;;;0.80;;
18140;SDS011;9196;49.194;12.526;2024-03-29T10:43:06;3.27;;;1.00;;
18140;SDS011;9196;49.194;12.526;2024-03-29T10:45:37;1.30;;;1.20;;
18140;SDS011;9196;49.194;12.526;2024-03-29T10:48:04;2.53;;;1.80;;
18140;SDS011;9196;49.194;12.526;2024-03-29T10:50:34;1.17;;;1.07;;
18140;SDS011;9196;49.194;12.526;2024-03-29T10:53:01;0.80;;;0.80;;
18140;SDS011;9196;49.194;12.526;2024-03-29T10:55:29;1.53;;;1.23;;
18140;SDS011;9196;49.194;12.526;2024-03-29T10:57:57;0.80;;;0.80;;
18140;SDS011;9196;49.194;12.526;2024-03-29T11:00:26;1.50;;;1.40;;
18140;SDS011;9196;49.194;12.526;2024-03-29T11:02:56;3.47;;;2.00;;
18140;SDS011;9196;49.194;12.526;2024-03-29T11:05:31;1.60;;;1.50;;
18140;SDS011;9196;49.194;12.526;2024-03-29T11:08:00;0.90;;;0.90;;
18140;SDS011;9196;49.194;12.526;2024-03-29T11:10:29;0.70;;;0.70;;
18140;SDS011;9196;49.194;12.526;2024-03-29T11:13:02;1.10;;;1.00;;
18140;SDS011;9196;49.194;12.526;2024-03-29T11:15:37;1.10;;;1.10;;
18140;SDS011;9196;49.194;12.526;2024-03-29T11:18:10;1.47;;;1.37;;
18140;SDS011;9196;49.194;12.526;2024-03-29T11:20:38;0.73;;;0.73;;
18140;SDS011;9196;49.194;12.526;2024-03-29T11:23:09;1.13;;;1.13;;
18140;SDS011;9196;49.194;12.526;2024-03-29T11:25:41;1.00;;;1.00;;
18140;SDS011;9196;49.194;12.526;2024-03-29T11:28:10;0.90;;;0.90;;
18140;SDS011;9196;49.194;12.526;2024-03-29T11:30:40;0.90;;;0.90;;
18140;SDS011;9196;49.194;12.526;2024-03-29T11:33:08;0.90;;;0.90;;
18140;SDS011;9196;49.194;12.526;2024-03-29T11:35:50;1.30;;;1.20;;
18140;SDS011;9196;49.194;12.526;2024-03-29T11:38:17;0.80;;;0.80;;
18140;SDS011;9196;49.194;12.526;2024-03-29T11:40:53;1.00;;;1.00;;
18140;SDS011;9196;49.194;12.526;2024-03-29T11:43:21;0.90;;;0.90;;
18140;SDS011;9196;49.194;12.526;2024-03-29T11:45:48;1.07;;;0.97;;
18140;SDS011;9196;49.194;12.526;2024-03-29T11:48:20;0.80;;;0.80;;
18140;SDS011;9196;49.194;12.526;2024-03-29T11:50:50;0.80;;;0.80;;
18140;SDS011;9196;49.194;12.526;2024-03-29T11:53:17;1.30;;;1.20;;
18140;SDS011;9196;49.194;12.526;2024-03-29T11:55:44;1.83;;;1.00;;
18140;SDS011;9196;49.194;12.526;2024-03-29T11:58:11;1.73;;;1.13;;
18140;SDS011;9196;49.194;12.526;2024-03-29T12:00:39;1.40;;;1.30;;
18140;SDS011;9196;49.194;12.526;2024-03-29T12:03:09;0.77;;;0.77;;
18140;SDS011;9196;49.194;12.526;2024-03-29T12:05:36;1.07;;;0.97;;
18140;SDS011;9196;49.194;12.526;2024-03-29T12:08:03;0.90;;;0.90;;
18140;SDS011;9196;49.194;12.526;2024-03-29T12:10:30;1.17;;;1.07;;
18140;SDS011;9196;49.194;12.526;2024-03-29T12:12:57;0.90;;;0.90;;
18140;SDS011;9196;49.194;12.526;2024-03-29T12:15:27;3.50;;;2.20;;
18140;SDS011;9196;49.194;12.526;2024-03-29T12:17:56;1.10;;;1.10;;
18140;SDS011;9196;49.194;12.526;2024-03-29T12:20:23;1.20;;;1.10;;
18140;SDS011;9196;49.194;12.526;2024-03-29T12:22:50;1.63;;;1.03;;
18140;SDS011;9196;49.194;12.526;2024-03-29T12:25:19;0.80;;;0.80;;
18140;SDS011;9196;49.194;12.526;2024-03-29T12:27:46;1.00;;;0.90;;
18140;SDS011;9196;49.194;12.526;2024-03-29T12:30:13;1.03;;;1.00;;
18140;SDS011;9196;49.194;12.526;2024-03-29T12:32:41;1.30;;;0.90;;
18140;SDS011;9196;49.194;12.526;2024-03-29T12:35:10;0.90;;;0.90;;
18140;SDS011;9196;49.194;12.526;2024-03-29T12:37:37;0.80;;;0.80;;
18140;SDS011;9196;49.194;12.526;2024-03-29T12:40:13;2.57;;;1.00;;
18140;SDS011;9196;49.194;12.526;2024-03-29T12:42:43;1.40;;;0.90;;
18140;SDS011;9196;49.194;12.526;2024-03-29T12:45:10;1.00;;;0.90;;
18140;SDS011;9196;49.194;12.526;2024-03-29T12:47:37;5.83;;;0.93;;
18140;SDS011;9196;49.194;12.526;2024-03-29T12:50:04;1.20;;;1.20;;
18140;SDS011;9196;49.194;12.526;2024-03-29T12:52:37;1.00;;;1.00;;
18140;SDS011;9196;49.194;12.526;2024-03-29T12:55:06;0.77;;;0.77;;
18140;SDS011;9196;49.194;12.526;2024-03-29T12:57:33;1.67;;;0.80;;
18140;SDS011;9196;49.194;12.526;2024-03-29T13:00:00;0.73;;;0.73;;
18140;SDS011;9196;49.194;12.526;2024-03-29T13:02:28;1.00;;;1.00;;
18140;SDS011;9196;49.194;12.526;2024-03-29T13:04:55;0.70;;;0.70;;
18140;SDS011;9196;49.194;12.526;2024-03-29T13:07:22;1.60;;;0.80;;
18140;SDS011;9196;49.194;12.526;2024-03-29T13:09:51;0.80;;;0.80;;
18140;SDS011;9196;49.194;12.526;2024-03-29T13:12:18;0.83;;;0.83;;
18140;SDS011;9196;49.194;12.526;2024-03-29T13:14:45;1.00;;;1.00;;
18140;SDS011;9196;49.194;12.526;2024-03-29T13:17:11;2.40;;;1.47;;
18140;SDS011;9196;49.194;12.526;2024-03-29T13:19:38;1.40;;;0.80;;
18140;SDS011;9196;49.194;12.526;2024-03-29T13:22:05;1.30;;;1.30;;
18140;SDS011;9196;49.194;12.526;2024-03-29T13:24:32;2.30;;;1.47;;
18140;SDS011;9196;49.194;12.526;2024-03-29T13:27:00;2.57;;;1.23;;
18140;SDS011;9196;49.194;12.526;2024-03-29T13:29:28;0.87;;;0.87;;
18140;SDS011;9196;49.194;12.526;2024-03-29T13:31:55;2.47;;;2.27;;
18140;SDS011;9196;49.194;12.526;2024-03-29T13:34:22;1.10;;;1.10;;
18140;SDS011;9196;49.194;12.526;2024-03-29T13:36:49;1.03;;;1.03;;
18140;SDS011;9196;49.194;12.526;2024-03-29T13:39:16;3.60;;;1.30;;
18140;SDS011;9196;49.194;12.526;2024-03-29T13:41:42;2.83;;;0.80;;
18140;SDS011;9196;49.194;12.526;2024-03-29T13:44:11;1.23;;;1.23;;
18140;SDS011;9196;49.194;12.526;2024-03-29T13:46:39;1.00;;;1.00;;
18140;SDS011;9196;49.194;12.526;2024-03-29T13:49:06;1.10;;;1.03;;
18140;SDS011;9196;49.194;12.526;2024-03-29T13:51:33;0.93;;;0.93;;
18140;SDS011;9196;49.194;12.526;2024-03-29T13:53:58;1.77;;;0.90;;
18140;SDS011;9196;49.194;12.526;2024-03-29T13:56:25;1.40;;;1.30;;
18140;SDS011;9196;49.194;12.526;2024-03-29T13:58:52;0.90;;;0.90;;
18140;SDS011;9196;49.194;12.526;2024-03-29T14:01:20;0.90;;;0.90;;
18140;SDS011;9196;49.194;12.526;2024-03-29T14:03:47;1.57;;;1.47;;
18140;SDS011;9196;49.194;12.526;2024-03-29T14:06:14;0.90;;;0.90;;
18140;SDS011;9196;49.194;12.526;2024-03-29T14:08:41;0.70;;;0.70;;
18140;SDS011;9196;49.194;12.526;2024-03-29T14:11:08;2.10;;;1.10;;
18140;SDS011;9196;49.194;12.526;2024-03-29T14:13:36;1.40;;;1.30;;
18140;SDS011;9196;49.194;12.526;2024-03-29T14:16:03;2.73;;;1.63;;
18140;SDS011;9196;49.194;12.526;2024-03-29T14:18:31;1.13;;;1.13;;
18140;SDS011;9196;49.194;12.526;2024-03-29T14:21:02;1.07;;;1.07;;
18140;SDS011;9196;49.194;12.526;2024-03-29T14:23:29;1.07;;;0.90;;
18140;SDS011;9196;49.194;12.526;2024-03-29T14:25:55;1.03;;;0.93;;
18140;SDS011;9196;49.194;12.526;2024-03-29T14:28:23;1.30;;;1.20;;
18140;SDS011;9196;49.194;12.526;2024-03-29T14:30:49;0.80;;;0.80;;
18140;SDS011;9196;49.194;12.526;2024-03-29T14:33:16;0.70;;;0.70;;
18140;SDS011;9196;49.194;12.526;2024-03-29T14:35:44;0.97;;;0.97;;
18140;SDS011;9196;49.194;12.526;2024-03-29T14:38:13;1.00;;;0.93;;
18140;SDS011;9196;49.194;12.526;2024-03-29T14:40:39;1.10;;;1.10;;
18140;SDS011;9196;49.194;12.526;2024-03-29T14:43:06;1.30;;;1.03;;
18140;SDS011;9196;49.194;12.526;2024-03-29T14:45:33;1.43;;;1.10;;
18140;SDS011;9196;49.194;12.526;2024-03-29T14:48:00;1.30;;;1.20;;
18140;SDS011;9196;49.194;12.526;2024-03-29T14:50:27;1.20;;;1.10;;